createdAt,value
2022-10-19T00:00:45.652Z,10.09
2022-10-19T00:03:12.315Z,10.09
2022-10-19T00:05:38.970Z,10.09
2022-10-19T00:08:05.826Z,10.02
2022-10-19T00:10:32.717Z,10.02
2022-10-19T00:12:59.790Z,10.06
2022-10-19T00:15:26.406Z,10.07
2022-10-19T00:17:53.142Z,10.07
2022-10-19T00:20:19.763Z,10.14
2022-10-19T00:22:49.816Z,10.17
2022-10-19T00:25:16.362Z,10.06
2022-10-19T00:27:42.921Z,10.16
2022-10-19T00:30:09.712Z,10.21
2022-10-19T00:32:36.396Z,10.21
2022-10-19T00:35:03.920Z,10.23
2022-10-19T00:37:30.552Z,10.23
2022-10-19T00:39:57.141Z,10.25
2022-10-19T00:42:23.734Z,10.25
2022-10-19T00:47:25.539Z,10.29
2022-10-19T00:49:52.803Z,10.32
2022-10-19T00:52:22.910Z,10.34
2022-10-19T00:54:50.490Z,10.21
2022-10-19T00:57:17.489Z,10.30
2022-10-19T00:59:46.502Z,10.32
2022-10-19T01:02:13.241Z,10.33
2022-10-19T01:04:45.052Z,10.36
2022-10-19T01:07:12.755Z,10.36
2022-10-19T01:09:39.316Z,10.36
2022-10-19T01:12:40.747Z,10.29
2022-10-19T01:15:32.617Z,10.27
2022-10-19T01:18:21.089Z,10.26
2022-10-19T01:37:23.565Z,10.16
2022-10-19T01:39:59.829Z,10.18
2022-10-19T01:48:03.567Z,10.38
2022-10-19T01:53:09.025Z,10.18
2022-10-19T01:55:40.197Z,10.15
2022-10-19T01:58:09.810Z,10.12
2022-10-19T02:00:41.908Z,10.10
2022-10-19T02:03:10.293Z,10.07
2022-10-19T02:05:39.054Z,10.07
2022-10-19T02:08:13.889Z,10.06
2022-10-19T02:10:44.321Z,10.07
2022-10-19T02:13:14.462Z,10.06
2022-10-19T02:15:45.622Z,10.07
2022-10-19T02:18:15.844Z,10.06
2022-10-19T02:20:42.386Z,10.03
2022-10-19T02:23:09.730Z,10.03
2022-10-19T02:25:36.888Z,10.02
2022-10-19T02:28:05.185Z,10.03
2022-10-19T02:30:32.174Z,10.00
2022-10-19T02:32:58.842Z,10.02
2022-10-19T02:35:25.588Z,10.02
2022-10-19T02:37:52.438Z,10.01
2022-10-19T02:40:19.177Z,10.02
2022-10-19T02:42:52.438Z,10.02
2022-10-19T02:45:26.167Z,10.02
2022-10-19T02:47:58.438Z,10.02
2022-10-19T02:50:25.474Z,10.00
2022-10-19T02:52:52.342Z,10.00
2022-10-19T02:55:19.121Z,10.01
2022-10-19T02:57:45.735Z,10.05
2022-10-19T03:00:12.504Z,10.05
2022-10-19T03:02:39.104Z,10.05
2022-10-19T03:05:06.124Z,10.06
2022-10-19T03:07:32.983Z,10.03
2022-10-19T03:09:59.936Z,10.01
2022-10-19T03:12:26.518Z,10.02
2022-10-19T03:14:53.124Z,10.03
2022-10-19T03:17:19.814Z,10.01
2022-10-19T03:19:46.520Z,10.05
2022-10-19T03:22:14.944Z,10.07
2022-10-19T03:24:41.577Z,10.05
2022-10-19T03:27:08.591Z,10.03
2022-10-19T03:29:35.162Z,10.08
2022-10-19T03:32:01.862Z,10.10
2022-10-19T03:34:28.742Z,10.12
2022-10-19T03:36:56.670Z,10.14
2022-10-19T03:39:23.215Z,10.16
2022-10-19T03:41:49.851Z,10.16
2022-10-19T03:44:16.712Z,10.17
2022-10-19T03:46:43.330Z,10.18
2022-10-19T03:49:10.335Z,10.21
2022-10-19T03:51:36.994Z,10.22
2022-10-19T03:54:07.476Z,10.24
2022-10-19T03:56:35.757Z,10.25
2022-10-19T03:59:04.064Z,10.25
2022-10-19T04:04:12.533Z,10.24
2022-10-19T04:06:42.570Z,10.26
2022-10-19T04:09:11.439Z,10.17
2022-10-19T04:11:38.393Z,10.25
2022-10-19T04:14:05.105Z,10.26
2022-10-19T04:16:32.196Z,10.27
2022-10-19T04:18:59.499Z,10.28
2022-10-19T04:21:28.830Z,10.29
2022-10-19T04:24:04.714Z,10.30
2022-10-19T04:26:32.164Z,10.32
2022-10-19T04:28:59.959Z,10.27
2022-10-19T04:31:28.250Z,10.34
2022-10-19T04:33:55.014Z,10.34
2022-10-19T04:36:21.858Z,10.34
2022-10-19T04:38:48.833Z,10.37
2022-10-19T04:41:18.519Z,10.39
2022-10-19T04:43:45.693Z,10.37
2022-10-19T04:46:19.113Z,10.36
2022-10-19T04:48:47.393Z,10.34
2022-10-19T04:51:15.041Z,10.32
2022-10-19T04:53:42.708Z,10.29
2022-10-19T04:56:13.072Z,10.29
2022-10-19T04:58:39.668Z,10.24
2022-10-19T05:01:12.389Z,10.22
2022-10-19T05:03:39.687Z,10.12
2022-10-19T05:06:07.777Z,10.12
2022-10-19T05:08:34.566Z,10.10
2022-10-19T05:11:12.370Z,10.03
2022-10-19T05:13:39.252Z,10.03
2022-10-19T05:16:07.521Z,10.00
2022-10-19T05:18:35.059Z,9.93
2022-10-19T05:23:38.047Z,9.91
2022-10-19T05:28:39.892Z,9.83
2022-10-19T05:31:11.546Z,9.83
2022-10-19T05:33:38.964Z,9.77
2022-10-19T05:38:49.565Z,9.83
2022-10-19T05:41:17.266Z,9.84
2022-10-19T05:43:45.222Z,9.83
2022-10-19T05:46:15.021Z,9.84
2022-10-19T05:48:41.808Z,9.86
2022-10-19T05:51:11.563Z,9.86
2022-10-19T05:56:15.517Z,9.82
2022-10-19T05:58:42.299Z,9.84
2022-10-19T06:01:09.598Z,9.89
2022-10-19T06:03:36.751Z,9.91
2022-10-19T06:06:05.614Z,9.93
2022-10-19T06:08:32.628Z,9.94
2022-10-19T06:13:44.194Z,9.95
2022-10-19T06:16:13.395Z,9.96
2022-10-19T06:18:40.477Z,9.93
2022-10-19T06:21:10.350Z,9.89
2022-10-19T06:23:37.644Z,9.86
2022-10-19T06:26:07.335Z,9.88
2022-10-19T06:28:34.727Z,9.84
2022-10-19T06:31:01.410Z,9.81
2022-10-19T06:33:28.710Z,9.81
2022-10-19T06:35:55.486Z,9.80
2022-10-19T06:38:22.255Z,9.76
2022-10-19T06:40:49.897Z,9.78
2022-10-19T06:43:16.597Z,9.76
2022-10-19T06:45:43.261Z,9.79
2022-10-19T06:48:09.829Z,9.76
2022-10-19T06:50:36.647Z,9.76
2022-10-19T06:53:03.254Z,9.78
2022-10-19T06:55:29.890Z,9.77
2022-10-19T06:57:58.601Z,9.76
2022-10-19T07:00:25.123Z,9.80
2022-10-19T07:02:51.753Z,9.80
2022-10-19T07:05:18.309Z,9.82
2022-10-19T07:07:45.686Z,9.88
2022-10-19T07:10:12.721Z,9.92
2022-10-19T07:12:39.618Z,9.96
2022-10-19T07:15:06.692Z,10.00
2022-10-19T07:17:33.447Z,9.99
2022-10-19T07:20:00.244Z,10.05
2022-10-19T07:22:28.240Z,10.07
2022-10-19T07:24:55.041Z,10.10
2022-10-19T07:27:21.972Z,10.13
2022-10-19T07:29:48.676Z,10.19
2022-10-19T07:32:15.510Z,10.27
2022-10-19T07:34:42.129Z,10.36
2022-10-19T07:37:08.776Z,10.51
2022-10-19T07:39:35.397Z,10.77
2022-10-19T07:42:01.979Z,11.09
2022-10-19T07:44:28.601Z,11.40
2022-10-19T07:46:55.175Z,11.60
2022-10-19T07:49:22.501Z,11.67
2022-10-19T07:51:53.820Z,11.77
2022-10-19T07:54:21.364Z,11.83
2022-10-19T07:56:47.964Z,11.88
2022-10-19T07:59:16.281Z,11.83
2022-10-19T08:01:44.628Z,11.86
2022-10-19T08:04:55.582Z,11.76
2022-10-19T08:06:57.756Z,11.66
2022-10-19T08:09:50.822Z,11.66
2022-10-19T08:12:14.917Z,11.72
2022-10-19T08:14:42.153Z,11.81
2022-10-19T08:17:11.939Z,11.81
2022-10-19T08:19:43.378Z,11.75
2022-10-19T08:22:10.562Z,11.77
2022-10-19T08:24:37.164Z,11.88
2022-10-19T08:27:03.968Z,12.04
2022-10-19T08:29:31.684Z,12.07
2022-10-19T08:31:59.201Z,12.14
2022-10-19T08:34:26.001Z,12.14
2022-10-19T08:36:52.797Z,12.17
2022-10-19T08:39:19.467Z,12.23
2022-10-19T08:42:12.717Z,12.17
2022-10-19T08:49:52.457Z,12.24
2022-10-19T08:52:24.359Z,12.26
2022-10-19T09:03:31.999Z,12.50
2022-10-19T09:08:45.991Z,12.57
2022-10-19T09:11:13.086Z,12.63
2022-10-19T09:14:04.139Z,12.60
2022-10-19T09:16:31.603Z,12.70
2022-10-19T09:18:58.444Z,12.65
2022-10-19T09:21:42.068Z,12.67
2022-10-19T09:27:00.436Z,12.93
2022-10-19T09:32:13.640Z,12.98
2022-10-19T09:37:26.282Z,13.03
2022-10-19T09:39:55.486Z,13.03
2022-10-19T09:42:34.557Z,13.10
2022-10-19T09:45:11.930Z,13.18
2022-10-19T09:47:40.886Z,13.35
2022-10-19T09:52:44.179Z,13.68
2022-10-19T09:57:58.552Z,14.04
2022-10-19T10:00:32.262Z,14.13
2022-10-19T10:02:58.861Z,14.14
2022-10-19T10:05:36.956Z,14.36
2022-10-19T10:08:12.314Z,14.69
2022-10-19T10:10:44.828Z,15.04
2022-10-19T10:13:19.027Z,15.25
2022-10-19T10:15:52.146Z,15.54
2022-10-19T10:18:19.186Z,15.57
2022-10-19T10:23:40.032Z,15.04
2022-10-19T10:26:17.249Z,14.83
2022-10-19T10:28:49.710Z,14.71
2022-10-19T10:31:23.207Z,14.78
2022-10-19T10:34:06.361Z,14.86
2022-10-19T10:36:43.795Z,14.73
2022-10-19T10:39:16.748Z,14.68
2022-10-19T10:41:45.144Z,14.50
2022-10-19T10:44:21.215Z,14.58
2022-10-19T10:46:53.918Z,14.55
2022-10-19T10:49:24.625Z,14.58
2022-10-19T10:51:56.861Z,14.69
2022-10-19T10:54:27.732Z,14.80
2022-10-19T10:59:43.119Z,14.82
2022-10-19T11:02:37.917Z,14.97
2022-10-19T11:05:11.950Z,15.12
2022-10-19T11:07:44.933Z,15.07
2022-10-19T11:10:36.774Z,14.90
2022-10-19T11:13:18.118Z,14.85
2022-10-19T11:15:53.749Z,14.87
2022-10-19T11:18:35.308Z,14.97
2022-10-19T11:31:41.602Z,15.02
2022-10-19T11:36:53.821Z,14.97
2022-10-19T11:39:34.062Z,14.83
2022-10-19T11:47:43.845Z,14.70
2022-10-19T12:00:57.978Z,14.85
2022-10-19T12:14:18.526Z,14.98
2022-10-19T12:16:50.325Z,14.96
2022-10-19T12:19:21.626Z,14.99
2022-10-19T12:21:49.675Z,15.00
2022-10-19T12:24:20.358Z,14.99
2022-10-19T12:26:47.924Z,15.05
2022-10-19T12:29:26.839Z,14.92
2022-10-19T12:31:55.187Z,14.98
2022-10-19T12:35:00.449Z,14.99
2022-10-19T12:40:24.720Z,15.12
2022-10-19T12:45:35.204Z,15.28
2022-10-19T12:53:36.279Z,15.28
2022-10-19T13:04:30.595Z,15.08
2022-10-19T13:09:38.738Z,15.00
2022-10-19T13:15:02.172Z,15.04
2022-10-19T13:23:11.182Z,15.54
2022-10-19T13:25:40.047Z,15.41
2022-10-19T13:36:09.444Z,15.33
2022-10-19T14:01:18.059Z,15.27
2022-10-19T14:09:35.389Z,15.23
2022-10-19T14:12:22.241Z,15.21
2022-10-19T14:14:50.255Z,15.20
2022-10-19T14:17:20.355Z,15.23
2022-10-19T14:19:52.373Z,15.17
2022-10-19T14:25:02.017Z,15.24
2022-10-19T14:27:30.410Z,15.37
2022-10-19T14:29:57.462Z,15.40
2022-10-19T14:32:27.189Z,15.42
2022-10-19T14:34:54.860Z,15.32
2022-10-19T14:37:25.826Z,15.44
2022-10-19T14:40:32.255Z,15.35
2022-10-19T14:43:00.828Z,15.33
2022-10-19T14:45:29.953Z,15.36
2022-10-19T14:55:47.042Z,15.29
2022-10-19T14:58:18.984Z,15.30
2022-10-19T15:00:48.646Z,15.28
2022-10-19T15:03:24.390Z,15.22
2022-10-19T15:05:56.507Z,15.32
2022-10-19T15:08:33.849Z,15.37
2022-10-19T15:11:00.782Z,15.37
2022-10-19T15:13:31.896Z,15.38
2022-10-19T15:15:58.605Z,15.29
2022-10-19T15:18:47.664Z,15.22
2022-10-19T15:21:18.554Z,15.21
2022-10-19T15:23:49.254Z,15.23
2022-10-19T15:29:20.035Z,15.18
2022-10-19T15:31:46.698Z,15.19
2022-10-19T15:34:24.444Z,15.10
2022-10-19T15:36:56.985Z,15.11
2022-10-19T15:39:38.929Z,15.08
2022-10-19T15:42:45.623Z,14.98
2022-10-19T15:45:32.494Z,14.94
2022-10-19T15:50:52.043Z,14.92
2022-10-19T15:53:19.693Z,14.83
2022-10-19T15:55:46.414Z,14.83
2022-10-19T15:58:13.940Z,14.88
2022-10-19T16:00:41.760Z,14.80
2022-10-19T16:03:09.182Z,14.78
2022-10-19T16:05:36.429Z,14.68
2022-10-19T16:08:03.037Z,14.68
2022-10-19T16:10:29.640Z,14.66
2022-10-19T16:12:56.159Z,14.68
2022-10-19T16:15:23.672Z,14.59
2022-10-19T16:17:54.253Z,14.55
2022-10-19T16:20:21.398Z,14.51
2022-10-19T16:22:49.120Z,14.41
2022-10-19T16:25:16.082Z,14.37
2022-10-19T16:27:42.819Z,14.27
2022-10-19T16:30:10.101Z,14.32
2022-10-19T16:32:36.770Z,14.23
2022-10-19T16:35:03.672Z,14.20
2022-10-19T16:37:30.262Z,14.20
2022-10-19T16:39:56.843Z,14.17
2022-10-19T16:42:25.664Z,14.14
2022-10-19T16:44:55.260Z,14.07
2022-10-19T16:47:21.905Z,14.00
2022-10-19T16:49:48.506Z,13.94
2022-10-19T16:52:15.239Z,13.95
2022-10-19T16:54:41.774Z,13.94
2022-10-19T16:57:10.008Z,13.89
2022-10-19T16:59:36.820Z,13.83
2022-10-19T17:02:03.677Z,13.81
2022-10-19T17:04:30.276Z,13.77
2022-10-19T17:06:57.717Z,13.74
2022-10-19T17:12:12.742Z,13.61
2022-10-19T17:14:41.403Z,13.59
2022-10-19T17:17:09.609Z,13.51
2022-10-19T17:19:37.188Z,13.49
2022-10-19T17:22:05.183Z,13.50
2022-10-19T17:24:32.299Z,13.46
2022-10-19T17:27:03.093Z,13.42
2022-10-19T17:29:29.819Z,13.29
2022-10-19T17:31:56.595Z,13.31
2022-10-19T17:34:23.209Z,13.23
2022-10-19T17:36:49.847Z,13.25
2022-10-19T17:39:24.414Z,13.22
2022-10-19T17:41:54.504Z,13.13
2022-10-19T17:44:22.081Z,13.16
2022-10-19T17:46:49.129Z,13.11
2022-10-19T17:49:16.512Z,13.08
2022-10-19T17:51:43.218Z,13.06
2022-10-19T17:54:12.517Z,13.05
2022-10-19T17:56:39.564Z,13.00
2022-10-19T17:59:08.923Z,12.98
2022-10-19T18:01:36.898Z,12.95
2022-10-19T18:04:04.279Z,12.97
2022-10-19T18:06:32.976Z,12.90
2022-10-19T18:09:01.102Z,12.80
2022-10-19T18:11:31.219Z,12.91
2022-10-19T18:14:00.528Z,12.89
2022-10-19T18:19:05.045Z,12.80
2022-10-19T18:21:35.971Z,12.79
2022-10-19T18:24:03.828Z,12.80
2022-10-19T18:26:33.272Z,12.72
2022-10-19T18:29:02.109Z,12.71
2022-10-19T18:31:30.919Z,12.71
2022-10-19T18:36:33.463Z,12.64
2022-10-19T18:39:03.459Z,12.69
2022-10-19T18:41:30.806Z,12.66
2022-10-19T18:44:01.352Z,12.68
2022-10-19T18:46:28.042Z,12.66
2022-10-19T18:48:54.930Z,12.66
2022-10-19T18:51:22.925Z,12.60
2022-10-19T18:53:50.054Z,12.59
2022-10-19T18:56:19.112Z,12.54
2022-10-19T18:58:46.249Z,12.56
2022-10-19T19:03:50.119Z,12.50
2022-10-19T19:06:19.542Z,12.40
2022-10-19T19:08:46.155Z,12.37
2022-10-19T19:11:19.377Z,12.41
2022-10-19T19:13:49.779Z,12.33
2022-10-19T19:16:16.517Z,12.41
2022-10-19T19:18:43.191Z,12.39
2022-10-19T19:21:27.421Z,12.37
2022-10-19T19:23:55.577Z,12.32
2022-10-19T19:26:23.860Z,12.32
2022-10-19T19:28:51.736Z,12.30
2022-10-19T19:31:19.679Z,12.27
2022-10-19T19:33:47.566Z,12.31
2022-10-19T19:36:16.366Z,12.27
2022-10-19T19:38:43.621Z,12.25
2022-10-19T19:41:13.640Z,12.18
2022-10-19T19:43:42.422Z,12.21
2022-10-19T19:46:13.072Z,12.17
2022-10-19T19:48:41.609Z,12.26
2022-10-19T19:51:11.934Z,12.28
2022-10-19T19:53:38.720Z,12.23
2022-10-19T19:56:08.191Z,12.28
2022-10-19T19:58:34.920Z,12.14
2022-10-19T20:01:12.302Z,12.22
2022-10-19T20:03:40.977Z,12.27
2022-10-19T20:06:08.082Z,12.20
2022-10-19T20:08:36.849Z,12.23
2022-10-19T20:11:06.048Z,12.23
2022-10-19T20:13:33.339Z,12.22
2022-10-19T20:16:02.580Z,12.20
2022-10-19T20:18:29.721Z,12.24
2022-10-19T20:21:02.224Z,12.21
2022-10-19T20:23:30.035Z,12.28
2022-10-19T20:25:56.987Z,12.29
2022-10-19T20:28:24.725Z,12.25
2022-10-19T20:31:02.695Z,12.25
2022-10-19T20:33:31.598Z,12.19
2022-10-19T20:36:11.789Z,12.24
2022-10-19T20:38:39.387Z,12.19
2022-10-19T20:41:08.454Z,12.20
2022-10-19T20:43:36.965Z,12.18
2022-10-19T20:46:06.292Z,12.24
2022-10-19T20:48:33.165Z,12.13
2022-10-19T20:53:50.388Z,12.15
2022-10-19T20:56:23.109Z,12.10
2022-10-19T20:59:00.213Z,12.13
2022-10-19T21:01:28.717Z,12.18
2022-10-19T21:03:57.847Z,12.16
2022-10-19T21:06:25.842Z,12.24
2022-10-19T21:08:53.354Z,12.22
2022-10-19T21:11:23.581Z,12.26
2022-10-19T21:13:54.169Z,12.18
2022-10-19T21:16:22.793Z,12.14
2022-10-19T21:18:50.434Z,12.13
2022-10-19T21:21:27.844Z,12.13
2022-10-19T21:23:58.962Z,12.20
2022-10-19T21:26:26.837Z,12.16
2022-10-19T21:28:54.174Z,12.20
2022-10-19T21:31:23.084Z,12.20
2022-10-19T21:33:50.936Z,12.20
2022-10-19T21:36:19.439Z,12.18
2022-10-19T21:38:46.139Z,12.23
2022-10-19T21:41:16.156Z,12.20
2022-10-19T21:43:42.890Z,12.08
2022-10-19T21:46:14.102Z,12.17
2022-10-19T21:48:41.266Z,12.25
2022-10-19T21:51:32.218Z,12.14
2022-10-19T21:53:59.320Z,12.18
2022-10-19T21:56:26.073Z,12.14
2022-10-19T21:58:53.987Z,12.17
2022-10-19T22:01:24.287Z,12.12
2022-10-19T22:03:56.119Z,12.21
2022-10-19T22:06:23.313Z,12.23
2022-10-19T22:08:49.935Z,12.26
2022-10-19T22:11:16.617Z,12.31
2022-10-19T22:13:43.549Z,12.31
2022-10-19T22:16:13.549Z,12.36
2022-10-19T22:18:40.373Z,12.20
2022-10-19T22:21:13.554Z,12.31
2022-10-19T22:23:40.282Z,12.32
2022-10-19T22:26:16.578Z,12.34
2022-10-19T22:28:43.986Z,12.38
2022-10-19T22:31:11.835Z,12.39
2022-10-19T22:33:38.947Z,12.43
2022-10-19T22:36:08.005Z,12.46
2022-10-19T22:38:35.168Z,12.49
2022-10-19T22:42:01.440Z,12.44
2022-10-19T22:44:28.012Z,12.52
2022-10-19T22:46:54.778Z,12.56
2022-10-19T22:49:21.472Z,12.56
2022-10-19T22:51:48.261Z,12.56
2022-10-19T22:54:15.707Z,12.62
2022-10-19T22:56:43.150Z,12.60
2022-10-19T22:59:09.779Z,12.62
2022-10-19T23:01:36.777Z,12.64
2022-10-19T23:04:03.578Z,12.65
2022-10-19T23:06:30.687Z,12.65
2022-10-19T23:08:57.364Z,12.69
2022-10-19T23:11:24.201Z,12.70
2022-10-19T23:13:50.788Z,12.69
2022-10-19T23:16:17.500Z,12.72
2022-10-19T23:18:44.228Z,12.74
2022-10-19T23:21:13.455Z,12.77
2022-10-19T23:23:40.944Z,12.78
2022-10-19T23:28:44.080Z,12.80
2022-10-19T23:31:17.673Z,12.78
2022-10-19T23:33:44.988Z,12.83
2022-10-19T23:36:28.747Z,12.82
2022-10-19T23:38:57.250Z,12.85
2022-10-19T23:41:24.356Z,12.87
2022-10-19T23:43:51.119Z,12.90
2022-10-19T23:46:17.693Z,12.90
2022-10-19T23:48:44.439Z,12.89
2022-10-19T23:51:13.855Z,12.92
2022-10-19T23:53:42.955Z,12.92
2022-10-19T23:58:51.415Z,12.93
